Time;durP1;ratioP1;P1;durP2;ratioP2;P2;SDS_P1;SDS_P2;PMS_P1;PMS_P2;Temp;Humidity;BMP_temperature;BMP_pressure;BME280_temperature;BME280_humidity;BME280_pressure;Samples;Min_cycle;Max_cycle;Signal;HPM_P1;HPM_P2
2022/03/05 00:04:40;;;;;;;37.43;22.47;;;;;-0.60;101359.00;;;;10267675;28;20212;-79
2022/03/05 00:09:43;;;;;;;33.07;21.10;;;;;-0.60;101366.00;;;;10295789;28;20212;-78
2022/03/05 00:14:45;;;;;;;43.70;21.80;;;;;-0.60;101367.00;;;;10279510;28;20200;-79
2022/03/05 00:19:47;;;;;;;35.13;20.47;;;;;-0.60;101364.00;;;;10308071;28;20274;-78
2022/03/05 00:24:51;;;;;;;35.60;20.23;;;;;-0.70;101364.00;;;;10324603;28;20295;-78
2022/03/05 00:29:53;;;;;;;33.17;20.87;;;;;-0.80;101368.00;;;;10292300;28;20674;-78
2022/03/05 00:34:55;;;;;;;35.27;20.33;;;;;-0.80;101361.00;;;;10325265;28;20218;-78
2022/03/05 00:39:57;;;;;;;35.57;20.47;;;;;-0.90;101359.00;;;;10293269;28;20278;-78
2022/03/05 00:45:00;;;;;;;35.30;20.93;;;;;-1.00;101375.00;;;;10276945;28;20204;-78
2022/03/05 00:50:05;;;;;;;39.60;21.67;;;;;-1.00;101368.00;;;;10309374;28;20283;-77
2022/03/05 00:55:08;;;;;;;38.13;22.83;;;;;-1.10;101376.00;;;;10275832;28;20303;-78
2022/03/05 01:00:11;;;;;;;40.20;22.60;;;;;-1.20;101370.00;;;;10290827;28;20228;-77
2022/03/05 01:05:13;;;;;;;41.13;23.63;;;;;-1.20;101373.00;;;;10323208;28;20667;-78
2022/03/05 01:10:15;;;;;;;39.93;21.93;;;;;-1.20;101362.00;;;;10331571;28;20199;-77
2022/03/05 01:15:16;;;;;;;41.13;21.63;;;;;-1.30;101368.00;;;;10336224;28;20311;-78
2022/03/05 01:20:18;;;;;;;38.27;22.23;;;;;-1.30;101363.00;;;;10331419;28;20208;-77
2022/03/05 01:25:20;;;;;;;43.47;22.73;;;;;-1.40;101372.00;;;;10313592;28;20618;-78
2022/03/05 01:30:22;;;;;;;40.70;22.90;;;;;-1.40;101381.00;;;;10313258;28;20254;-78
2022/03/05 01:35:24;;;;;;;39.60;23.33;;;;;-1.50;101378.00;;;;10281458;28;20303;-78
2022/03/05 01:40:26;;;;;;;39.53;22.47;;;;;-1.70;101358.00;;;;10297230;28;20227;-78
2022/03/05 01:45:28;;;;;;;39.70;23.20;;;;;-1.70;101378.00;;;;10313756;28;20203;-78
2022/03/05 01:50:30;;;;;;;45.67;22.43;;;;;-1.70;101374.00;;;;10306198;28;20262;-78
2022/03/05 01:55:33;;;;;;;41.70;22.97;;;;;-1.80;101366.00;;;;10297619;28;20215;-78
2022/03/05 02:00:35;;;;;;;40.63;21.73;;;;;-1.80;101373.00;;;;10297199;28;20224;-78
2022/03/05 02:05:37;;;;;;;41.13;22.60;;;;;-1.80;101359.00;;;;10314969;28;20247;-78
2022/03/05 02:10:40;;;;;;;41.73;22.10;;;;;-1.90;101370.00;;;;10320600;28;20187;-78
2022/03/05 02:15:42;;;;;;;44.20;22.53;;;;;-1.90;101365.00;;;;10320392;28;20204;-78
2022/03/05 02:20:44;;;;;;;41.03;22.07;;;;;-1.90;101363.00;;;;10334784;28;20253;-77
2022/03/05 02:25:53;;;;;;;41.60;23.00;;;;;-2.00;101345.00;;;;10295619;28;20200;-78
2022/03/05 02:30:56;;;;;;;41.30;22.23;;;;;-2.00;101358.00;;;;10279816;28;20206;-78
2022/03/05 02:35:58;;;;;;;44.13;22.80;;;;;-2.10;101351.00;;;;10345423;28;20852;-78
2022/03/05 02:41:00;;;;;;;42.47;22.73;;;;;-2.10;101349.00;;;;10295422;28;20231;-77
2022/03/05 02:46:02;;;;;;;44.07;22.87;;;;;-2.20;101347.00;;;;10279540;28;20220;-77
2022/03/05 02:51:04;;;;;;;45.07;24.97;;;;;-2.20;101336.00;;;;10296269;28;20230;-77
2022/03/05 02:56:06;;;;;;;41.17;24.23;;;;;-2.30;101349.00;;;;10296256;28;20222;-79
2022/03/05 03:01:08;;;;;;;41.17;23.90;;;;;-2.30;101346.00;;;;10296517;28;20274;-79
2022/03/05 03:06:10;;;;;;;46.20;24.90;;;;;-2.30;101348.00;;;;10311963;28;20196;-79
2022/03/05 03:11:12;;;;;;;43.60;24.83;;;;;-2.30;101350.00;;;;10279456;28;20200;-79
2022/03/05 03:16:15;;;;;;;42.83;23.70;;;;;-2.30;101351.00;;;;10312061;28;20196;-79
2022/03/05 03:21:17;;;;;;;38.47;22.10;;;;;-2.40;101356.00;;;;10313726;28;20216;-78
2022/03/05 03:26:19;;;;;;;41.23;23.87;;;;;-2.40;101344.00;;;;10313633;28;20200;-78
2022/03/05 03:31:21;;;;;;;39.10;21.70;;;;;-2.50;101348.00;;;;10296430;28;20212;-79
2022/03/05 03:36:23;;;;;;;38.13;21.87;;;;;-2.60;101345.00;;;;10279892;28;20254;-79
2022/03/05 03:41:25;;;;;;;46.23;25.70;;;;;-2.60;101361.00;;;;10327074;28;20228;-79
2022/03/05 03:46:27;;;;;;;45.63;24.57;;;;;-2.60;101351.00;;;;10278559;28;20262;-79
2022/03/05 03:51:29;;;;;;;42.27;23.17;;;;;-2.50;101359.00;;;;10326531;28;20200;-79
2022/03/05 03:56:33;;;;;;;43.23;24.37;;;;;-2.50;101361.00;;;;10295881;28;20220;-79
2022/03/05 04:01:35;;;;;;;41.60;23.93;;;;;-2.50;101371.00;;;;10278500;28;20255;-79
2022/03/05 04:11:58;;;;;;;46.33;26.63;;;;;-2.50;101371.00;;;;10310344;28;21000;-79
2022/03/05 04:17:00;;;;;;;51.77;28.43;;;;;-2.60;101369.00;;;;10278155;28;20642;-78
2022/03/05 04:22:02;;;;;;;44.07;25.20;;;;;-2.60;101380.00;;;;10310614;28;20224;-79
2022/03/05 04:27:05;;;;;;;45.90;24.97;;;;;-2.60;101368.00;;;;10279121;28;20196;-78
2022/03/05 04:32:07;;;;;;;43.90;24.50;;;;;-2.70;101376.00;;;;10277999;28;20203;-79
2022/03/05 04:37:09;;;;;;;48.03;25.03;;;;;-2.70;101372.00;;;;10294275;28;20833;-78
2022/03/05 04:42:11;;;;;;;46.83;24.20;;;;;-2.70;101372.00;;;;10278823;28;20216;-78
2022/03/05 04:47:13;;;;;;;42.97;25.27;;;;;-2.70;101374.00;;;;10297779;28;20451;-78
2022/03/05 04:52:16;;;;;;;45.20;25.20;;;;;-2.70;101381.00;;;;10302685;28;20220;-78
2022/03/05 04:57:19;;;;;;;47.47;25.37;;;;;-2.80;101378.00;;;;10285554;28;20191;-79
2022/03/05 05:02:20;;;;;;;49.87;25.87;;;;;-2.80;101376.00;;;;10300475;28;20224;-79
2022/03/05 05:07:23;;;;;;;48.30;24.97;;;;;-2.80;101378.00;;;;10304739;28;20657;-79
2022/03/05 05:12:26;;;;;;;43.50;25.00;;;;;-2.90;101380.00;;;;10284240;28;20215;-79
2022/03/05 05:17:27;;;;;;;46.83;25.17;;;;;-2.90;101381.00;;;;10301830;28;20250;-79
2022/03/05 05:22:31;;;;;;;51.70;24.40;;;;;-2.90;101381.00;;;;10285126;28;20228;-79
2022/03/05 05:27:39;;;;;;;48.30;27.37;;;;;-2.80;101385.00;;;;10299928;28;20204;-79
2022/03/05 05:32:41;;;;;;;39.50;24.20;;;;;-2.80;101384.00;;;;10284292;28;20204;-79
2022/03/05 05:37:43;;;;;;;50.37;25.67;;;;;-2.90;101386.00;;;;10287531;28;20224;-79
2022/03/05 05:42:45;;;;;;;44.50;24.53;;;;;-2.90;101391.00;;;;10292118;28;20602;-78
2022/03/05 05:47:47;;;;;;;46.40;26.70;;;;;-3.00;101387.00;;;;10311339;28;20312;-78
2022/03/05 05:52:49;;;;;;;51.20;26.03;;;;;-3.00;101399.00;;;;10300444;28;20781;-78
2022/03/05 05:57:50;;;;;;;47.53;24.40;;;;;-3.10;101405.00;;;;10300104;28;20192;-78
2022/03/05 06:02:52;;;;;;;46.40;24.80;;;;;-3.20;101417.00;;;;10298151;28;20220;-78
2022/03/05 06:07:56;;;;;;;45.67;26.20;;;;;-3.20;101414.00;;;;10299682;28;20204;-78
2022/03/05 06:12:58;;;;;;;50.27;25.27;;;;;-3.20;101403.00;;;;10297517;28;20254;-78
2022/03/05 06:18:00;;;;;;;48.23;26.13;;;;;-3.20;101414.00;;;;10298882;28;20208;-78
2022/03/05 06:23:04;;;;;;;49.83;26.47;;;;;-3.20;101406.00;;;;10299002;28;20216;-78
2022/03/05 06:28:06;;;;;;;49.43;27.43;;;;;-3.00;101413.00;;;;10297846;28;20930;-78
2022/03/05 06:33:08;;;;;;;46.63;25.97;;;;;-3.00;101408.00;;;;10297918;28;20188;-78
2022/03/05 06:38:11;;;;;;;51.60;26.53;;;;;-2.90;101401.00;;;;10297522;28;20231;-78
2022/03/05 06:43:13;;;;;;;54.73;27.90;;;;;-2.80;101401.00;;;;10297401;28;20224;-78
2022/03/05 06:48:15;;;;;;;49.83;28.20;;;;;-2.80;101406.00;;;;10294238;28;20232;-78
2022/03/05 06:53:17;;;;;;;47.10;28.03;;;;;-2.70;101410.00;;;;10297654;28;20226;-78
2022/03/05 06:58:19;;;;;;;49.73;26.60;;;;;-2.50;101416.00;;;;10313827;28;20200;-78
2022/03/05 07:03:21;;;;;;;44.33;26.37;;;;;-2.40;101420.00;;;;10272341;28;20235;-78
2022/03/05 07:08:23;;;;;;;50.57;26.80;;;;;-2.10;101421.00;;;;10281180;28;20208;-77
2022/03/05 07:13:25;;;;;;;46.90;27.63;;;;;-1.70;101424.00;;;;10281991;28;20227;-78
2022/03/05 07:18:29;;;;;;;47.97;26.27;;;;;-1.30;101418.00;;;;10315094;28;20196;-77
2022/03/05 07:23:31;;;;;;;51.77;29.10;;;;;-0.90;101422.00;;;;10258583;28;20227;-78
2022/03/05 07:28:33;;;;;;;51.70;27.93;;;;;-0.40;101431.00;;;;10258490;28;20197;-78
2022/03/05 07:33:35;;;;;;;50.13;28.27;;;;;0.30;101431.00;;;;10266164;28;20299;-78
2022/03/05 07:38:41;;;;;;;44.80;25.73;;;;;0.80;101439.00;;;;10292016;28;20275;-78
2022/03/05 07:43:43;;;;;;;43.77;25.07;;;;;1.20;101436.00;;;;10313226;28;20286;-78
2022/03/05 07:48:44;;;;;;;40.80;24.03;;;;;1.70;101434.00;;;;10304610;28;20212;-79
2022/03/05 07:53:47;;;;;;;41.77;25.27;;;;;2.00;101446.00;;;;10297757;28;20618;-78
2022/03/05 07:58:49;;;;;;;39.23;23.70;;;;;2.30;101450.00;;;;10299376;28;20706;-78
2022/03/05 08:03:52;;;;;;;44.90;24.27;;;;;2.50;101452.00;;;;10318027;28;20265;-78
2022/03/05 08:08:57;;;;;;;46.40;26.73;;;;;2.70;101467.00;;;;10304399;28;20205;-78
2022/03/05 08:13:59;;;;;;;41.80;25.60;;;;;3.10;101473.00;;;;10301299;28;20204;-79
2022/03/05 08:19:01;;;;;;;36.77;23.83;;;;;3.50;101481.00;;;;10296160;28;20212;-78
2022/03/05 08:24:03;;;;;;;36.90;23.97;;;;;3.90;101477.00;;;;10302770;28;20220;-78
2022/03/05 08:29:05;;;;;;;37.57;23.87;;;;;4.30;101478.00;;;;10310616;28;20196;-78
2022/03/05 08:34:07;;;;;;;41.70;22.27;;;;;4.60;101477.00;;;;10296103;28;20299;-78
2022/03/05 08:39:09;;;;;;;34.63;22.40;;;;;5.00;101487.00;;;;10277299;28;20303;-78
2022/03/05 08:44:11;;;;;;;33.47;22.37;;;;;5.20;101492.00;;;;10263387;28;20224;-77
2022/03/05 08:49:13;;;;;;;39.97;22.97;;;;;5.60;101487.00;;;;10297542;28;20204;-78
2022/03/05 08:54:17;;;;;;;36.93;23.13;;;;;5.90;101492.00;;;;10289794;28;20222;-78
2022/03/05 08:59:19;;;;;;;34.77;21.97;;;;;6.30;101495.00;;;;10274066;28;20204;-78
2022/03/05 09:04:21;;;;;;;33.80;22.10;;;;;6.70;101493.00;;;;10307737;28;20315;-78
2022/03/05 09:09:23;;;;;;;35.53;22.57;;;;;7.00;101495.00;;;;10272163;28;20208;-78
2022/03/05 09:14:25;;;;;;;38.23;23.27;;;;;7.30;101488.00;;;;10282043;28;20266;-78
2022/03/05 09:19:27;;;;;;;33.47;22.97;;;;;7.80;101491.00;;;;10323216;28;20208;-77
2022/03/05 09:24:29;;;;;;;35.70;23.27;;;;;8.10;101499.00;;;;10305693;28;20242;-77
2022/03/05 09:29:31;;;;;;;30.77;20.77;;;;;8.50;101497.00;;;;10292606;28;20208;-77
2022/03/05 09:34:33;;;;;;;32.93;20.33;;;;;8.70;101500.00;;;;10306150;28;20219;-77
2022/03/05 09:39:37;;;;;;;37.67;21.77;;;;;8.80;101505.00;;;;10327173;28;20765;-78
2022/03/05 09:44:39;;;;;;;37.13;21.40;;;;;9.00;101507.00;;;;10279065;28;20222;-77
2022/03/05 09:49:42;;;;;;;33.13;22.20;;;;;9.20;101505.00;;;;10296703;28;20211;-77
2022/03/05 09:54:45;;;;;;;30.40;22.23;;;;;9.70;101499.00;;;;10296265;28;20220;-77
2022/03/05 09:59:47;;;;;;;36.80;22.40;;;;;10.10;101500.00;;;;10313721;28;20204;-77
2022/03/05 10:04:49;;;;;;;36.60;22.87;;;;;10.50;101497.00;;;;10321542;28;20410;-77
2022/03/05 10:10:07;;;;;;;33.93;24.93;;;;;10.90;101502.00;;;;10311055;28;20204;-77
2022/03/05 10:15:17;;;;;;;34.40;23.10;;;;;11.40;101508.00;;;;10327788;28;20218;-77
2022/03/05 10:20:22;;;;;;;32.83;23.07;;;;;11.50;101505.00;;;;10311175;28;20265;-77
2022/03/05 10:25:52;;;;;;;33.93;24.43;;;;;11.50;101511.00;;;;10311612;28;20318;-77
2022/03/05 10:30:55;;;;;;;37.60;24.23;;;;;12.00;101499.00;;;;10238870;28;20201;-77
2022/03/05 10:36:03;;;;;;;38.10;25.37;;;;;12.20;101494.00;;;;10291985;28;20701;-78
2022/03/05 10:41:05;;;;;;;33.43;23.83;;;;;12.50;101494.00;;;;10274380;28;20227;-78
2022/03/05 10:46:07;;;;;;;38.47;24.30;;;;;12.80;101504.00;;;;10295229;28;20296;-78
2022/03/05 10:51:12;;;;;;;35.40;24.90;;;;;12.70;101492.00;;;;10276221;28;20200;-77
2022/03/05 10:56:32;;;;;;;37.67;25.63;;;;;12.90;101492.00;;;;10309234;28;20200;-77
2022/03/05 11:01:40;;;;;;;39.00;26.60;;;;;13.20;101490.00;;;;10324312;28;20256;-77
2022/03/05 11:06:43;;;;;;;35.57;26.30;;;;;13.50;101498.00;;;;10272302;28;20210;-77
2022/03/05 11:11:48;;;;;;;40.63;26.80;;;;;14.10;101497.00;;;;10292516;28;20239;-77
2022/03/05 11:16:56;;;;;;;37.33;25.53;;;;;14.60;101487.00;;;;10308736;28;20216;-77
2022/03/05 11:21:58;;;;;;;39.23;26.73;;;;;14.60;101490.00;;;;10308683;28;20284;-77
2022/03/05 11:27:00;;;;;;;34.67;24.47;;;;;14.20;101488.00;;;;10308317;28;20266;-77
2022/03/05 11:32:14;;;;;;;37.20;26.20;;;;;14.40;101488.00;;;;10278855;28;20200;-77
2022/03/05 11:37:37;;;;;;;36.97;25.20;;;;;14.30;101482.00;;;;10323842;28;20232;-77
2022/03/05 11:42:39;;;;;;;36.03;26.10;;;;;14.40;101479.00;;;;10309495;28;20312;-77
2022/03/05 11:47:42;;;;;;;38.43;25.40;;;;;14.40;101481.00;;;;10308985;28;20238;-77
2022/03/05 11:52:46;;;;;;;35.60;24.83;;;;;14.40;101479.00;;;;10309365;28;20854;-77
2022/03/05 11:57:51;;;;;;;36.93;25.30;;;;;14.60;101480.00;;;;10310628;28;20204;-77
2022/03/05 12:02:55;;;;;;;37.23;25.53;;;;;14.60;101480.00;;;;10326663;28;20227;-76
2022/03/05 12:07:56;;;;;;;33.83;25.00;;;;;14.90;101473.00;;;;10292639;28;20864;-77
2022/03/05 12:13:01;;;;;;;35.10;26.10;;;;;15.10;101470.00;;;;10309996;28;20259;-77
2022/03/05 12:18:04;;;;;;;39.00;27.10;;;;;15.10;101475.00;;;;10294011;28;20199;-77
2022/03/05 12:23:09;;;;;;;34.33;25.50;;;;;15.00;101466.00;;;;10309672;28;20228;-77
2022/03/05 12:28:17;;;;;;;36.93;26.17;;;;;15.00;101471.00;;;;10311069;28;20196;-77
2022/03/05 12:33:19;;;;;;;33.23;24.13;;;;;15.10;101464.00;;;;10310049;28;20214;-77
2022/03/05 12:38:22;;;;;;;35.37;25.60;;;;;15.10;101461.00;;;;10297094;28;20303;-76
2022/03/05 12:43:24;;;;;;;38.03;26.13;;;;;15.00;101447.00;;;;10311164;28;20228;-77
2022/03/05 12:48:26;;;;;;;34.60;24.77;;;;;14.90;101444.00;;;;10329299;28;20287;-78
2022/03/05 12:53:30;;;;;;;35.27;24.93;;;;;15.20;101437.00;;;;10309960;28;20476;-77
2022/03/05 12:58:35;;;;;;;35.63;24.20;;;;;15.40;101442.00;;;;10270852;28;20208;-77
2022/03/05 13:03:38;;;;;;;31.93;23.17;;;;;15.70;101444.00;;;;10293861;28;20482;-77
2022/03/05 13:08:41;;;;;;;32.20;22.60;;;;;15.80;101443.00;;;;10292482;28;20204;-77
2022/03/05 13:13:46;;;;;;;33.53;24.23;;;;;15.80;101442.00;;;;10327799;28;20216;-78
2022/03/05 13:19:00;;;;;;;32.53;22.30;;;;;15.90;101438.00;;;;10301374;28;20210;-77
2022/03/05 13:24:06;;;;;;;28.30;20.40;;;;;16.20;101449.00;;;;10332195;28;20670;-77
2022/03/05 13:29:08;;;;;;;29.17;20.90;;;;;16.30;101441.00;;;;10319655;28;20215;-78
2022/03/05 13:34:23;;;;;;;26.67;19.73;;;;;16.30;101428.00;;;;10317955;28;20199;-78
2022/03/05 13:39:26;;;;;;;27.17;20.27;;;;;16.00;101437.00;;;;10299847;28;20220;-76
2022/03/05 13:44:34;;;;;;;25.73;19.23;;;;;16.70;101431.00;;;;10308799;28;20255;-77
2022/03/05 13:49:36;;;;;;;26.57;20.70;;;;;16.90;101427.00;;;;10314986;28;20519;-77
2022/03/05 13:54:41;;;;;;;26.90;19.13;;;;;17.20;101427.00;;;;10296659;28;20204;-77
2022/03/05 13:59:47;;;;;;;23.63;17.53;;;;;18.70;101409.00;;;;10280331;28;20207;-76
2022/03/05 14:05:06;;;;;;;23.27;16.43;;;;;19.60;101375.00;;;;10295645;28;20713;-75
2022/03/05 14:10:11;;;;;;;28.27;18.47;;;;;20.00;101367.00;;;;10293504;28;20718;-76
2022/03/05 14:15:13;;;;;;;21.07;14.40;;;;;20.50;101360.00;;;;10276168;28;20219;-76
2022/03/05 14:20:21;;;;;;;22.70;16.03;;;;;19.80;101371.00;;;;10285926;28;20220;-76
2022/03/05 14:25:49;;;;;;;18.73;14.03;;;;;18.70;101375.00;;;;10294203;28;20216;-76
2022/03/05 14:30:51;;;;;;;25.80;15.77;;;;;19.10;101360.00;;;;10292641;28;20706;-76
2022/03/05 14:35:53;;;;;;;16.70;11.57;;;;;19.90;101362.00;;;;10309505;28;20210;-76
2022/03/05 14:40:55;;;;;;;14.97;11.57;;;;;19.00;101346.00;;;;10292984;28;20220;-76
2022/03/05 14:45:57;;;;;;;20.40;14.90;;;;;18.70;101380.00;;;;10309716;28;20243;-76
2022/03/05 14:50:59;;;;;;;20.40;15.10;;;;;17.50;101350.00;;;;10309446;28;20203;-76
2022/03/05 14:56:01;;;;;;;19.27;13.90;;;;;19.40;101312.00;;;;10308086;28;20251;-76
2022/03/05 15:01:03;;;;;;;19.10;14.77;;;;;21.30;101298.00;;;;10275987;28;20201;-76
2022/03/05 15:06:05;;;;;;;22.67;16.47;;;;;20.60;101352.00;;;;10308214;28;20222;-76
2022/03/05 15:11:07;;;;;;;21.87;16.83;;;;;20.40;101305.00;;;;10324135;28;20204;-76
2022/03/05 15:16:09;;;;;;;22.63;15.87;;;;;20.30;101363.00;;;;10307902;28;20918;-76
2022/03/05 15:21:11;;;;;;;18.67;13.77;;;;;18.90;101350.00;;;;10293143;28;20792;-76
2022/03/05 15:26:14;;;;;;;17.53;13.53;;;;;19.70;101337.00;;;;10294257;28;20212;-77
2022/03/05 15:31:16;;;;;;;21.03;15.17;;;;;19.80;101338.00;;;;10310130;28;20659;-77
2022/03/05 15:36:18;;;;;;;21.67;15.03;;;;;18.60;101407.00;;;;10316404;28;20212;-77
2022/03/05 15:41:20;;;;;;;18.77;14.63;;;;;14.90;101395.00;;;;10292866;28;20220;-77
2022/03/05 15:46:22;;;;;;;22.87;16.00;;;;;13.90;101402.00;;;;10325451;28;20252;-77
2022/03/05 15:51:24;;;;;;;23.53;16.27;;;;;13.70;101385.00;;;;10294492;28;20211;-78
2022/03/05 15:56:27;;;;;;;22.53;16.60;;;;;13.30;101410.00;;;;10309244;28;20231;-77
2022/03/05 16:01:30;;;;;;;26.30;16.03;;;;;12.50;101404.00;;;;10277401;28;20204;-77
2022/03/05 16:06:33;;;;;;;23.03;15.97;;;;;12.00;101402.00;;;;10326345;28;20877;-77
2022/03/05 16:11:35;;;;;;;25.63;16.57;;;;;11.50;101407.00;;;;10293612;28;20196;-77
2022/03/05 16:16:37;;;;;;;25.87;15.63;;;;;11.10;101403.00;;;;10293459;28;20211;-77
2022/03/05 16:21:40;;;;;;;27.90;16.77;;;;;10.80;101401.00;;;;10325009;28;20258;-77
2022/03/05 16:26:42;;;;;;;24.97;16.53;;;;;10.60;101403.00;;;;10275683;28;20234;-77
2022/03/05 16:31:44;;;;;;;25.03;15.07;;;;;10.40;101401.00;;;;10261811;28;21177;-77
2022/03/05 16:36:46;;;;;;;29.07;16.07;;;;;10.20;101403.00;;;;10312886;28;20207;-77
2022/03/05 16:41:48;;;;;;;26.67;15.73;;;;;10.00;101392.00;;;;10307032;28;20212;-77
2022/03/05 16:46:50;;;;;;;23.67;16.07;;;;;9.90;101395.00;;;;10278433;28;20200;-77
2022/03/05 16:51:53;;;;;;;25.33;16.80;;;;;9.70;101399.00;;;;10302037;28;20208;-78
2022/03/05 16:56:55;;;;;;;27.77;17.20;;;;;9.50;101402.00;;;;10318522;28;20200;-78
2022/03/05 17:01:57;;;;;;;29.57;16.83;;;;;9.30;101402.00;;;;10292611;28;20302;-77
2022/03/05 17:06:59;;;;;;;27.83;18.20;;;;;9.10;101398.00;;;;10333322;28;20232;-77
2022/03/05 17:12:02;;;;;;;29.17;16.87;;;;;8.90;101402.00;;;;10316694;28;20203;-77
2022/03/05 17:17:04;;;;;;;28.97;16.87;;;;;8.70;101406.00;;;;10284824;28;20225;-77
2022/03/05 17:22:05;;;;;;;31.50;18.97;;;;;8.40;101411.00;;;;10317583;28;20230;-78
2022/03/05 17:27:07;;;;;;;29.93;17.23;;;;;8.20;101422.00;;;;10301046;28;20203;-78
2022/03/05 17:32:13;;;;;;;27.03;16.90;;;;;8.10;101428.00;;;;10320490;28;20307;-78
2022/03/05 17:37:15;;;;;;;30.00;17.47;;;;;7.90;101429.00;;;;10332176;28;20322;-78
2022/03/05 17:42:17;;;;;;;28.60;16.87;;;;;7.60;101438.00;;;;10339936;28;20810;-78
2022/03/05 17:47:19;;;;;;;26.37;16.20;;;;;7.50;101439.00;;;;10293131;28;20939;-78
2022/03/05 17:52:21;;;;;;;34.83;16.30;;;;;7.30;101445.00;;;;10315756;28;20212;-77
2022/03/05 17:57:23;;;;;;;27.80;16.23;;;;;7.10;101448.00;;;;10296409;28;20213;-78
2022/03/05 18:02:25;;;;;;;27.70;17.27;;;;;7.00;101453.00;;;;10314270;28;20220;-78
2022/03/05 18:07:27;;;;;;;35.87;18.03;;;;;6.80;101451.00;;;;10332524;28;20206;-78
2022/03/05 18:12:29;;;;;;;31.03;17.33;;;;;6.70;101456.00;;;;10355018;28;20757;-77
2022/03/05 18:17:31;;;;;;;29.37;16.80;;;;;6.50;101465.00;;;;10305149;28;20204;-77
2022/03/05 18:22:33;;;;;;;37.20;20.30;;;;;6.40;101474.00;;;;10313548;28;20263;-77
2022/03/05 18:27:35;;;;;;;36.67;19.40;;;;;6.30;101483.00;;;;10280827;28;20197;-78
2022/03/05 18:32:38;;;;;;;37.60;21.37;;;;;6.20;101482.00;;;;10296841;28;20206;-77
2022/03/05 18:37:40;;;;;;;43.17;22.40;;;;;6.00;101495.00;;;;10347711;28;20223;-77
2022/03/05 18:42:42;;;;;;;41.30;23.07;;;;;5.90;101496.00;;;;10281063;28;20660;-77
2022/03/05 18:47:44;;;;;;;44.23;23.70;;;;;5.90;101501.00;;;;10280613;28;20205;-77
2022/03/05 18:52:46;;;;;;;44.07;23.47;;;;;5.70;101508.00;;;;10296490;28;20204;-77
2022/03/05 18:57:48;;;;;;;42.30;23.27;;;;;5.60;101500.00;;;;10278969;28;20258;-77
2022/03/05 19:02:50;;;;;;;42.30;23.60;;;;;5.50;101505.00;;;;10280456;28;20246;-78
2022/03/05 19:07:52;;;;;;;48.10;26.97;;;;;5.40;101510.00;;;;10349223;28;20207;-79
2022/03/05 19:12:54;;;;;;;49.20;25.57;;;;;5.30;101502.00;;;;10335416;28;20206;-78
2022/03/05 19:17:56;;;;;;;51.20;26.40;;;;;5.10;101516.00;;;;10321817;28;20207;-79
2022/03/05 19:22:58;;;;;;;47.10;25.03;;;;;5.10;101517.00;;;;10336634;28;20211;-78
2022/03/05 19:28:01;;;;;;;46.87;24.50;;;;;5.00;101516.00;;;;10328218;28;20200;-78
2022/03/05 19:33:03;;;;;;;47.47;25.10;;;;;4.90;101523.00;;;;10279107;28;20262;-78
2022/03/05 19:38:09;;;;;;;52.00;26.47;;;;;4.80;101521.00;;;;10311723;28;20278;-78
2022/03/05 19:43:12;;;;;;;46.80;26.07;;;;;4.60;101527.00;;;;10296304;28;20250;-79
2022/03/05 19:48:14;;;;;;;49.17;26.27;;;;;4.50;101535.00;;;;10294673;28;20267;-78
2022/03/05 19:53:16;;;;;;;52.23;26.50;;;;;4.40;101525.00;;;;10312192;28;20263;-78
2022/03/05 19:58:18;;;;;;;50.03;27.03;;;;;4.30;101532.00;;;;10278821;28;20231;-79
2022/03/05 20:03:20;;;;;;;53.87;26.47;;;;;4.30;101530.00;;;;10293460;28;20653;-78
2022/03/05 20:08:24;;;;;;;53.63;27.53;;;;;4.20;101533.00;;;;10351545;28;20291;-78
2022/03/05 20:13:26;;;;;;;52.50;26.33;;;;;4.10;101538.00;;;;10351811;28;20203;-78
2022/03/05 20:18:28;;;;;;;51.47;27.07;;;;;4.00;101545.00;;;;10351033;28;20211;-78
2022/03/05 20:23:30;;;;;;;51.47;27.70;;;;;3.90;101546.00;;;;10326537;28;20283;-78
2022/03/05 20:28:32;;;;;;;54.33;27.33;;;;;3.80;101545.00;;;;10262724;28;20200;-78
2022/03/05 20:33:34;;;;;;;54.23;28.17;;;;;3.80;101548.00;;;;10274544;28;20271;-78
2022/03/05 20:38:36;;;;;;;54.03;28.10;;;;;3.70;101552.00;;;;10334120;28;20234;-78
2022/03/05 20:43:39;;;;;;;56.53;29.63;;;;;3.60;101549.00;;;;10333420;28;20758;-78
2022/03/05 20:48:41;;;;;;;55.57;27.80;;;;;3.50;101554.00;;;;10309553;28;20246;-78
2022/03/05 20:53:43;;;;;;;59.13;29.27;;;;;3.40;101550.00;;;;10277445;28;20232;-78
2022/03/05 20:58:45;;;;;;;66.33;30.87;;;;;3.30;101560.00;;;;10308941;28;20200;-78
2022/03/05 21:03:47;;;;;;;58.10;29.67;;;;;3.20;101561.00;;;;10276119;28;20248;-78
2022/03/05 21:08:50;;;;;;;56.47;28.93;;;;;3.20;101564.00;;;;10261931;28;20208;-78
2022/03/05 21:13:52;;;;;;;58.37;31.23;;;;;3.00;101572.00;;;;10309266;28;20709;-78
2022/03/05 21:18:55;;;;;;;58.37;29.30;;;;;2.90;101576.00;;;;10326406;28;20200;-78
2022/03/05 21:23:58;;;;;;;61.83;30.47;;;;;2.80;101583.00;;;;10311947;28;20247;-78
2022/03/05 21:29:00;;;;;;;58.47;28.73;;;;;2.70;101576.00;;;;10291223;28;20650;-78
2022/03/05 21:34:02;;;;;;;47.97;25.83;;;;;2.60;101577.00;;;;10311957;28;20200;-78
2022/03/05 21:39:05;;;;;;;61.13;28.80;;;;;2.50;101588.00;;;;10299441;28;20240;-78
2022/03/05 21:44:07;;;;;;;61.33;31.33;;;;;2.40;101591.00;;;;10300205;28;20263;-78
2022/03/05 21:49:09;;;;;;;58.63;28.43;;;;;2.30;101594.00;;;;10348540;28;20671;-78
2022/03/05 21:54:11;;;;;;;56.07;30.00;;;;;2.30;101601.00;;;;10299728;28;20203;-78
2022/03/05 21:59:14;;;;;;;62.30;30.67;;;;;2.20;101599.00;;;;10283089;28;20205;-78
2022/03/05 22:04:16;;;;;;;57.93;29.27;;;;;2.00;101601.00;;;;10286586;28;20223;-78
2022/03/05 22:09:18;;;;;;;61.63;30.63;;;;;1.90;101599.00;;;;10299313;28;20205;-78
2022/03/05 22:14:31;;;;;;;61.93;30.27;;;;;1.70;101604.00;;;;10313966;28;20192;-78
2022/03/05 22:19:33;;;;;;;61.47;28.63;;;;;1.60;101602.00;;;;10298138;28;20212;-78
2022/03/05 22:24:36;;;;;;;61.83;29.77;;;;;1.50;101614.00;;;;10298263;28;20224;-78
2022/03/05 22:29:38;;;;;;;60.37;27.90;;;;;1.40;101604.00;;;;10314993;28;20212;-78
2022/03/05 22:34:40;;;;;;;56.60;28.57;;;;;1.30;101613.00;;;;10308683;28;20302;-78
2022/03/05 22:39:42;;;;;;;62.77;30.70;;;;;1.20;101609.00;;;;10337854;28;20555;-78
2022/03/05 22:44:45;;;;;;;54.80;27.67;;;;;1.20;101615.00;;;;10325959;28;20200;-78
2022/03/05 22:49:48;;;;;;;64.90;29.93;;;;;1.20;101629.00;;;;10296429;28;20227;-78
2022/03/05 22:54:50;;;;;;;61.43;29.43;;;;;1.10;101618.00;;;;10312147;28;20207;-78
2022/03/05 22:59:52;;;;;;;61.43;30.23;;;;;1.00;101626.00;;;;10311064;28;20200;-78
2022/03/05 23:04:54;;;;;;;62.33;30.53;;;;;1.00;101624.00;;;;10297918;28;20298;-78
2022/03/05 23:09:56;;;;;;;66.80;29.80;;;;;1.00;101636.00;;;;10338054;28;20227;-78
2022/03/05 23:14:58;;;;;;;63.73;29.57;;;;;1.00;101633.00;;;;10351717;28;20685;-78
2022/03/05 23:20:01;;;;;;;62.53;30.53;;;;;1.00;101641.00;;;;10335887;28;20261;-78
2022/03/05 23:25:03;;;;;;;63.27;29.33;;;;;0.80;101640.00;;;;10328107;28;20230;-79
2022/03/05 23:30:05;;;;;;;63.30;29.90;;;;;0.70;101649.00;;;;10311578;28;20216;-78
2022/03/05 23:35:08;;;;;;;60.63;28.47;;;;;0.60;101649.00;;;;10295213;28;20328;-79
2022/03/05 23:40:11;;;;;;;68.53;30.07;;;;;0.50;101649.00;;;;10311207;28;20228;-79
2022/03/05 23:45:13;;;;;;;62.60;30.63;;;;;0.50;101654.00;;;;10294117;28;20232;-79
2022/03/05 23:50:16;;;;;;;63.40;29.63;;;;;0.50;101666.00;;;;10309994;28;20200;-79
2022/03/05 23:55:18;;;;;;;71.90;32.00;;;;;0.30;101665.00;;;;10294224;28;20200;-78
